Time;durP1;ratioP1;P1;durP2;ratioP2;P2;SDS_P1;SDS_P2;PMS_P1;PMS_P2;Temp;Humidity;BMP_temperature;BMP_pressure;BME280_temperature;BME280_humidity;BME280_pressure;Samples;Min_cycle;Max_cycle;Signal;HPM_P1;HPM_P2
2023/07/01 00:07:08;;;;;;;9.65;7.55;;;;;;;18.81;70.55;100523.38;15860117;28;20047;-74
2023/07/01 00:14:44;;;;;;;9.48;8.25;;;;;;;18.79;70.37;100516.56;15861491;28;20042;-73
2023/07/01 00:22:16;;;;;;;9.85;8.18;;;;;;;18.10;73.86;100509.59;15860322;28;20039;-75
2023/07/01 00:29:50;;;;;;;10.00;7.85;;;;;;;18.31;73.00;100507.75;15860065;28;20050;-73
2023/07/01 00:37:24;;;;;;;11.02;8.82;;;;;;;18.70;71.71;100502.72;15825137;28;20274;-74
2023/07/01 00:44:58;;;;;;;11.27;9.18;;;;;;;18.76;71.56;100498.91;15824711;28;20052;-74
2023/07/01 00:52:31;;;;;;;10.05;8.55;;;;;;;18.64;71.76;100490.16;15860528;28;20044;-73
2023/07/01 01:00:10;;;;;;;10.27;8.65;;;;;;;18.48;72.19;100477.63;15859184;28;20047;-74
2023/07/01 01:07:49;;;;;;;13.07;8.43;;;;;;;18.56;72.27;100483.38;15862722;28;20142;-73
2023/07/01 01:15:24;;;;;;;9.68;8.57;;;;;;;18.31;72.62;100472.44;15867075;28;20048;-73
2023/07/01 01:23:02;;;;;;;10.38;9.00;;;;;;;18.17;73.09;100458.53;15860998;28;20040;-72
2023/07/01 01:30:36;;;;;;;11.25;9.50;;;;;;;18.59;72.01;100455.63;15880392;28;20051;-73
2023/07/01 01:38:18;;;;;;;12.48;9.05;;;;;;;18.59;71.86;100438.50;15870809;28;20064;-74
2023/07/01 01:45:54;;;;;;;11.00;8.95;;;;;;;18.75;71.05;100445.63;15870523;28;20572;-73
2023/07/01 01:53:29;;;;;;;10.63;9.13;;;;;;;18.72;71.17;100446.16;15851092;28;20046;-73
2023/07/01 02:01:06;;;;;;;12.23;9.70;;;;;;;18.25;71.80;100414.56;15870166;28;20487;-73
2023/07/01 02:08:39;;;;;;;12.75;9.63;;;;;;;18.46;71.61;100428.16;15868656;28;20043;-73
2023/07/01 02:16:15;;;;;;;11.38;8.38;;;;;;;18.39;72.11;100431.16;15850358;28;20043;-73
2023/07/01 02:23:48;;;;;;;10.95;9.43;;;;;;;18.48;71.20;100429.53;15832370;28;20468;-73
2023/07/01 02:31:22;;;;;;;14.00;10.18;;;;;;;18.22;72.02;100420.50;15848998;28;20042;-74
2023/07/01 02:38:55;;;;;;;11.85;9.48;;;;;;;18.35;71.03;100408.31;15846996;28;20043;-73
2023/07/01 02:46:30;;;;;;;;;;;;;;;18.10;71.53;100400.94;15850199;28;20109;-73
2023/07/01 02:54:03;;;;;;;12.50;10.93;;;;;;;17.82;73.19;100392.19;15848167;28;19958;-73
2023/07/01 03:01:37;;;;;;;11.40;9.93;;;;;;;18.00;72.19;100384.59;15834137;27;20248;-73
2023/07/01 03:09:12;;;;;;;13.60;10.50;;;;;;;18.03;71.75;100384.88;15866922;27;20260;-73
2023/07/01 03:16:46;;;;;;;12.80;11.00;;;;;;;17.82;71.39;100356.88;15864578;28;20051;-73
2023/07/01 03:24:20;;;;;;;14.27;10.68;;;;;;;17.79;71.90;100368.28;15863767;28;20044;-73
2023/07/01 03:31:57;;;;;;;12.68;11.30;;;;;;;17.87;71.37;100368.84;15864059;28;20047;-72
2023/07/01 03:39:31;;;;;;;15.45;11.40;;;;;;;17.36;72.98;100372.16;15863409;28;20229;-72
2023/07/01 03:47:06;;;;;;;14.80;11.55;;;;;;;17.55;72.84;100391.50;15862948;28;20495;-74
2023/07/01 03:54:40;;;;;;;16.48;11.73;;;;;;;17.30;74.02;100379.44;15862664;28;20157;-73
2023/07/01 04:02:15;;;;;;;16.27;11.82;;;;;;;17.43;74.18;100380.84;15876565;27;20035;-73
2023/07/01 04:09:50;;;;;;;17.90;11.82;;;;;;;17.81;73.15;100371.53;15886856;27;20286;-74
2023/07/01 04:17:24;;;;;;;;;;;;;;;17.89;73.13;100369.38;15853294;28;20122;-74
2023/07/01 04:24:57;;;;;;;15.35;12.18;;;;;;;17.87;73.40;100364.22;15843157;28;20352;-73
2023/07/01 04:32:31;;;;;;;14.60;12.23;;;;;;;18.21;71.72;100355.59;15860871;28;20090;-73
2023/07/01 04:40:05;;;;;;;16.00;11.55;;;;;;;17.69;71.97;100357.34;15843468;28;20051;-73
2023/07/01 04:47:39;;;;;;;16.85;11.32;;;;;;;18.10;70.72;100349.34;15859839;28;20464;-73
2023/07/01 04:55:12;;;;;;;13.05;9.90;;;;;;;17.99;69.71;100344.94;15859606;28;20658;-73
2023/07/01 05:02:46;;;;;;;11.75;9.43;;;;;;;18.13;69.06;100343.34;15859971;28;20043;-74
2023/07/01 05:10:19;;;;;;;13.10;9.27;;;;;;;18.17;67.77;100343.63;15840804;28;20050;-73
2023/07/01 05:17:54;;;;;;;11.95;8.50;;;;;;;18.31;67.50;100348.25;15840144;28;20101;-74
2023/07/01 05:25:27;;;;;;;10.05;7.68;;;;;;;18.28;65.48;100339.84;15857894;28;20122;-73
2023/07/01 05:33:01;;;;;;;;;;;;;;;18.35;64.74;100333.03;15858922;28;20044;-73
2023/07/01 05:40:35;;;;;;;12.10;6.97;;;;;;;18.68;64.79;100341.72;15840937;28;19928;-74
2023/07/01 05:48:09;;;;;;;12.05;10.55;;;;;;;19.17;63.09;100341.13;15857376;28;20069;-72
2023/07/01 05:55:42;;;;;;;9.05;6.20;;;;;;;19.41;61.88;100335.03;15857117;28;20134;-72
2023/07/01 06:03:16;;;;;;;;;;;;;;;19.11;61.75;100334.03;15841116;28;20093;-72
2023/07/01 06:10:49;;;;;;;9.82;5.80;;;;;;;19.70;59.73;100336.00;15868025;27;19924;-73
2023/07/01 06:18:23;;;;;;;10.63;5.40;;;;;;;20.19;57.30;100318.81;15864267;28;20036;-73
2023/07/01 06:25:56;;;;;;;7.18;4.80;;;;;;;20.61;56.09;100322.81;15868765;28;20162;-73
2023/07/01 06:33:30;;;;;;;;;;;;;;;20.70;54.45;100317.56;15867963;28;20039;-73
2023/07/01 06:41:03;;;;;;;6.05;3.97;;;;;;;20.99;52.89;100302.00;15867472;28;20371;-75
2023/07/01 06:48:38;;;;;;;5.75;3.33;;;;;;;21.48;50.31;100305.50;15861433;27;20070;-74
2023/07/01 06:56:11;;;;;;;6.45;3.20;;;;;;;21.60;47.70;100290.31;15864242;28;20043;-73
2023/07/01 07:03:48;;;;;;;6.15;3.53;;;;;;;22.28;50.01;100290.94;15864289;28;20099;-74
2023/07/01 07:11:22;;;;;;;4.20;2.70;;;;;;;22.14;45.27;100274.50;15864676;28;20047;-74
2023/07/01 07:18:56;;;;;;;5.00;2.50;;;;;;;22.48;42.44;100276.13;15863283;28;20051;-74
2023/07/01 07:26:29;;;;;;;534.38;120.28;;;;;;;22.18;44.95;100267.31;15844727;28;20188;-74
2023/07/01 07:34:04;;;;;;;3.25;1.50;;;;;;;22.34;41.93;100263.22;15833378;27;20071;-74
2023/07/01 07:41:37;;;;;;;4.45;2.20;;;;;;;22.64;40.81;100255.56;15862225;27;20196;-75
2023/07/01 07:49:11;;;;;;;4.55;1.63;;;;;;;23.13;39.63;100256.81;15860022;28;20051;-74
2023/07/01 07:56:44;;;;;;;3.80;1.90;;;;;;;23.54;39.30;100256.72;15860910;28;20119;-75
2023/07/01 08:04:22;;;;;;;5.72;1.70;;;;;;;23.86;37.29;100241.22;15860013;28;20046;-74
2023/07/01 08:11:58;;;;;;;5.93;1.50;;;;;;;23.70;37.43;100243.53;15842860;28;20467;-74
2023/07/01 08:19:34;;;;;;;4.68;2.17;;;;;;;23.83;39.13;100234.44;15859458;28;20398;-73
2023/07/01 08:27:07;;;;;;;3.33;1.50;;;;;;;23.79;39.89;100225.22;15858223;28;20059;-73
2023/07/01 08:34:41;;;;;;;4.03;1.38;;;;;;;24.52;38.31;100223.09;15857302;28;20040;-73
2023/07/01 08:42:26;;;;;;;2.33;1.27;;;;;;;24.63;37.15;100215.41;15858569;28;20069;-73
2023/07/01 08:50:06;;;;;;;4.32;1.30;;;;;;;24.70;36.06;100204.75;15839785;28;20093;-74
2023/07/01 08:57:41;;;;;;;4.80;1.65;;;;;;;24.73;37.20;100197.84;15858000;28;20484;-73
2023/07/01 09:05:15;;;;;;;5.55;1.80;;;;;;;24.71;35.67;100192.66;15839636;28;20401;-74
2023/07/01 09:12:48;;;;;;;6.47;2.28;;;;;;;24.39;36.36;100178.19;15857826;28;20098;-73
2023/07/01 09:20:33;;;;;;;6.68;2.15;;;;;;;25.26;35.55;100183.09;15856005;28;20108;-73
2023/07/01 09:28:06;;;;;;;5.75;2.15;;;;;;;25.64;34.04;100161.25;15869911;28;20062;-73
2023/07/01 09:35:45;;;;;;;2.83;1.70;;;;;;;24.61;35.51;100149.84;15869971;28;20058;-74
2023/07/01 09:43:19;;;;;;;4.28;2.33;;;;;;;24.83;35.72;100131.66;15867557;28;20043;-74
2023/07/01 09:51:02;;;;;;;6.05;2.05;;;;;;;25.19;35.88;100134.97;15869856;28;20527;-74
2023/07/01 09:58:35;;;;;;;4.72;2.35;;;;;;;26.04;36.68;100128.06;15844062;28;20058;-74
2023/07/01 10:06:09;;;;;;;5.75;2.03;;;;;;;25.47;35.37;100125.56;15868947;28;20143;-73
2023/07/01 10:13:45;;;;;;;5.22;1.73;;;;;;;26.63;34.14;100106.94;15868637;28;20044;-73
2023/07/01 10:21:30;;;;;;;9.63;2.13;;;;;;;25.73;34.90;100098.84;15868158;28;20055;-74
2023/07/01 10:29:37;;;;;;;7.68;2.03;;;;;;;25.70;36.31;100083.00;15866417;28;20436;-72
2023/07/01 10:37:14;;;;;;;7.32;2.00;;;;;;;25.98;35.93;100072.44;15855619;22;20189;-54
2023/07/01 10:44:50;;;;;;;6.38;2.05;;;;;;;26.39;34.40;100057.16;15780294;28;20095;-56
2023/07/01 10:52:27;;;;;;;6.03;2.30;;;;;;;25.58;36.67;100058.13;15804031;22;20052;-52
2023/07/01 11:00:38;;;;;;;4.88;2.17;;;;;;;24.65;38.77;100046.53;15804194;28;20052;-54
2023/07/01 11:08:12;;;;;;;4.45;1.85;;;;;;;25.41;36.41;100034.25;15793718;28;20048;-56
2023/07/01 11:16:01;;;;;;;6.10;2.25;;;;;;;25.17;37.87;100021.03;15801746;28;20040;-57
2023/07/01 11:23:35;;;;;;;5.05;2.10;;;;;;;25.10;40.15;100015.25;15793847;28;20040;-55
2023/07/01 11:31:14;;;;;;;7.13;2.20;;;;;;;25.02;38.22;100002.31;15811733;28;20148;-55
2023/07/01 11:38:49;;;;;;;5.43;2.15;;;;;;;25.77;38.70;99992.63;15794205;28;20414;-53
2023/07/01 11:46:31;;;;;;;11.90;1.88;;;;;;;25.65;35.95;99984.25;15802526;28;20385;-56
2023/07/01 11:54:05;;;;;;;5.07;2.00;;;;;;;25.91;35.34;99975.88;15802159;28;20052;-55
2023/07/01 12:01:39;;;;;;;4.97;2.92;;;;;;;26.75;33.55;99962.22;15801308;28;20415;-52
2023/07/01 12:09:27;;;;;;;7.63;2.38;;;;;;;25.67;34.46;99962.72;15802984;28;20072;-56
2023/07/01 12:17:01;;;;;;;5.90;2.40;;;;;;;25.60;35.40;99959.66;15803511;28;20048;-53
2023/07/01 12:24:36;;;;;;;7.60;2.58;;;;;;;25.97;35.97;99960.81;15803335;28;20443;-55
2023/07/01 12:32:10;;;;;;;6.70;2.45;;;;;;;25.47;34.66;99966.22;15799179;28;20139;-54
2023/07/01 12:39:44;;;;;;;5.38;2.40;;;;;;;26.26;35.41;99945.44;15789890;28;20052;-51
2023/07/01 12:47:18;;;;;;;8.75;2.28;;;;;;;26.61;33.45;99946.78;15784235;28;20043;-53
2023/07/01 12:54:53;;;;;;;5.38;2.45;;;;;;;25.99;34.78;99941.25;15798912;28;20052;-54
2023/07/01 13:02:26;;;;;;;6.63;2.10;;;;;;;25.18;35.08;99927.34;15798725;28;20032;-54
2023/07/01 13:10:00;;;;;;;4.30;2.13;;;;;;;25.33;36.05;99922.47;15797536;28;20134;-51
2023/07/01 13:17:37;;;;;;;3.70;2.13;;;;;;;25.51;35.45;99926.75;15791439;28;20036;-54
2023/07/01 13:25:18;;;;;;;20.63;3.38;;;;;;;25.40;35.35;99923.53;15811908;28;20079;-54
2023/07/01 13:32:52;;;;;;;3.97;2.05;;;;;;;25.10;36.87;99917.19;15827698;28;20044;-50
2023/07/01 13:40:26;;;;;;;6.70;2.65;;;;;;;25.51;38.51;99921.25;15777977;28;20420;-51
2023/07/01 13:48:00;;;;;;;7.18;2.20;;;;;;;25.05;38.28;99905.56;15801949;28;20052;-54
2023/07/01 13:55:34;;;;;;;8.23;2.47;;;;;;;24.67;38.49;99898.84;15807661;28;20063;-52
2023/07/01 14:03:12;;;;;;;7.30;2.50;;;;;;;24.34;38.62;99900.44;15808661;28;20057;-50
2023/07/01 14:10:49;;;;;;;5.93;2.05;;;;;;;24.96;39.14;99896.53;15804041;28;20046;-54
2023/07/01 14:18:26;;;;;;;5.93;2.28;;;;;;;24.80;36.72;99894.28;15805817;28;20106;-53
2023/07/01 14:26:00;;;;;;;7.00;2.17;;;;;;;24.37;37.91;99884.16;15806016;28;20488;-54
2023/07/01 14:33:38;;;;;;;3.80;2.33;;;;;;;23.98;39.09;99895.25;15806637;28;20054;-49
2023/07/01 14:41:26;;;;;;;3.85;2.20;;;;;;;24.45;38.83;99890.00;15795233;28;20132;-53
2023/07/01 14:49:00;;;;;;;4.00;2.05;;;;;;;23.72;40.26;99898.75;15799405;28;20488;-51
2023/07/01 14:56:36;;;;;;;5.15;1.80;;;;;;;23.35;39.36;99911.78;15805029;28;20044;-52
2023/07/01 15:04:09;;;;;;;5.50;1.73;;;;;;;22.90;40.65;99909.16;15805740;28;20048;-52
2023/07/01 15:11:44;;;;;;;2.85;1.80;;;;;;;23.03;41.57;99918.41;15812864;28;20036;-52
2023/07/01 15:19:17;;;;;;;6.57;2.17;;;;;;;23.45;42.06;99907.16;15803975;28;20059;-54
2023/07/01 15:26:54;;;;;;;3.17;1.83;;;;;;;22.99;42.70;99913.84;15806472;28;20393;-50
2023/07/01 15:34:27;;;;;;;3.55;1.90;;;;;;;23.13;42.64;99900.91;15807655;28;20044;-54
2023/07/01 15:42:01;;;;;;;3.38;1.80;;;;;;;23.12;42.26;99897.34;15803559;28;20040;-50
2023/07/01 15:49:33;;;;;;;5.13;2.10;;;;;;;22.53;44.17;99899.38;15787057;28;20113;-50
2023/07/01 15:57:08;;;;;;;20.05;2.58;;;;;;;22.38;44.41;99900.56;15805789;28;20040;-51
2023/07/01 16:04:41;;;;;;;4.93;1.98;;;;;;;22.87;43.58;99898.81;15804550;28;20087;-53
2023/07/01 16:12:31;;;;;;;9.93;2.70;;;;;;;22.88;44.02;99897.69;15801558;28;20079;-52
2023/07/01 16:20:41;;;;;;;5.63;2.60;;;;;;;23.13;43.61;99885.31;15797942;28;20043;-52
2023/07/01 16:28:29;;;;;;;3.50;2.25;;;;;;;22.39;44.96;99887.69;15789810;28;20109;-50
2023/07/01 16:36:26;;;;;;;4.40;2.50;;;;;;;23.51;45.88;99889.47;15800022;28;20463;-52
2023/07/01 16:44:00;;;;;;;6.90;2.90;;;;;;;23.24;45.53;99907.72;15799514;28;20043;-51
2023/07/01 16:51:34;;;;;;;6.28;2.35;;;;;;;22.71;46.57;99894.00;15800416;22;20117;-54
2023/07/01 16:59:09;;;;;;;5.57;2.72;;;;;;;22.28;48.20;99914.44;15748905;28;20527;-49
2023/07/01 17:06:44;;;;;;;4.13;2.20;;;;;;;21.50;54.85;99934.66;15766376;28;20464;-51
2023/07/01 17:14:37;;;;;;;4.53;2.83;;;;;;;21.38;56.46;99935.94;15762310;28;20198;-52
2023/07/01 17:22:11;;;;;;;5.18;2.70;;;;;;;20.22;59.45;99939.41;15743450;28;20045;-50
2023/07/01 17:29:46;;;;;;;9.77;3.53;;;;;;;19.80;63.35;99941.06;15753554;28;20052;-51
2023/07/01 17:37:19;;;;;;;13.82;5.18;;;;;;;19.57;66.41;99967.16;15734635;28;20033;-51
2023/07/01 17:44:54;;;;;;;6.80;4.20;;;;;;;19.05;69.97;99981.53;15731612;28;20070;-52
2023/07/01 17:52:27;;;;;;;6.68;3.70;;;;;;;18.46;73.22;99988.72;15744732;28;20044;-51
2023/07/01 18:00:02;;;;;;;11.07;5.10;;;;;;;18.18;75.16;99976.63;15763387;28;20293;-53
2023/07/01 18:07:45;;;;;;;5.70;3.80;;;;;;;18.54;75.17;99968.28;15754106;28;20048;-52
2023/07/01 18:15:19;;;;;;;4.00;3.60;;;;;;;19.10;72.99;99941.50;15766228;28;20032;-52
2023/07/01 18:22:52;;;;;;;6.60;4.45;;;;;;;19.76;70.02;99940.00;15766052;28;20047;-55
2023/07/01 18:30:26;;;;;;;7.70;4.05;;;;;;;19.92;68.79;99929.75;15778494;28;20481;-54
2023/07/01 18:37:59;;;;;;;5.93;3.80;;;;;;;19.42;71.46;99939.28;15730147;28;20066;-53
2023/07/01 18:45:33;;;;;;;22.88;4.30;;;;;;;19.94;69.73;99938.44;15742486;28;20044;-55
2023/07/01 18:53:06;;;;;;;6.28;4.10;;;;;;;19.78;68.97;99950.63;15752234;28;20072;-54
2023/07/01 19:00:43;;;;;;;9.43;3.95;;;;;;;19.78;69.52;99935.09;15736119;28;20057;-57
2023/07/01 19:08:16;;;;;;;6.15;4.18;;;;;;;19.80;69.48;99940.25;15751163;28;20101;-52
2023/07/01 19:15:50;;;;;;;5.63;4.15;;;;;;;19.65;70.73;99930.34;15763012;28;20436;-55
2023/07/01 19:23:23;;;;;;;298.58;26.67;;;;;;;19.30;71.64;99940.47;15746326;28;20048;-57
2023/07/01 19:31:01;;;;;;;7.38;4.10;;;;;;;19.45;70.72;99941.44;15739452;28;20060;-56
2023/07/01 19:38:34;;;;;;;8.77;5.50;;;;;;;18.64;73.57;99941.03;15755498;28;20052;-57
2023/07/01 19:46:09;;;;;;;5.50;4.03;;;;;;;19.19;71.74;99946.31;15770874;28;20041;-53
2023/07/01 19:53:41;;;;;;;4.57;3.20;;;;;;;19.01;72.18;99947.84;15753926;28;20093;-51
2023/07/01 20:01:16;;;;;;;6.68;2.90;;;;;;;18.73;72.33;99944.81;15759631;28;20048;-51
2023/07/01 20:08:49;;;;;;;4.07;2.95;;;;;;;18.70;72.53;99941.84;15757985;28;20119;-53
2023/07/01 20:16:23;;;;;;;4.20;2.50;;;;;;;19.07;71.17;99944.81;15762264;28;20114;-56
2023/07/01 20:23:56;;;;;;;2.65;2.45;;;;;;;18.94;71.13;99936.50;15732465;28;20072;-55
2023/07/01 20:31:30;;;;;;;4.57;2.40;;;;;;;18.38;72.69;99936.88;15732971;28;20131;-54
2023/07/01 20:39:03;;;;;;;3.80;2.35;;;;;;;18.43;73.36;99932.22;15764543;28;20543;-57
2023/07/01 20:46:37;;;;;;;18.17;6.28;;;;;;;18.94;71.06;99936.50;15771407;28;20041;-56
2023/07/01 20:54:10;;;;;;;3.38;2.13;;;;;;;18.76;71.54;99932.56;15738691;28;20054;-53
2023/07/01 21:01:44;;;;;;;3.90;2.42;;;;;;;18.56;71.88;99922.63;15756500;28;20048;-57
2023/07/01 21:09:17;;;;;;;73.47;4.60;;;;;;;18.61;72.13;99928.03;15741859;28;20119;-58
2023/07/01 21:16:53;;;;;;;2.55;2.17;;;;;;;18.57;72.05;99927.78;15782219;28;20039;-54
2023/07/01 21:24:26;;;;;;;62.30;5.15;;;;;;;18.64;71.23;99919.28;15732869;28;20028;-53
2023/07/01 21:32:00;;;;;;;2.47;1.92;;;;;;;18.51;72.50;99919.94;15736173;28;20430;-54
2023/07/01 21:39:33;;;;;;;3.70;2.45;;;;;;;18.62;71.64;99916.06;15764114;28;20123;-56
2023/07/01 21:47:07;;;;;;;;;;;;;;;18.79;72.21;99921.09;15751667;28;20127;-55
2023/07/01 21:54:40;;;;;;;3.03;2.58;;;;;;;18.69;72.07;99916.56;15744846;28;20308;-52
2023/07/01 22:02:24;;;;;;;47.40;3.13;;;;;;;18.64;71.91;99913.84;15755812;28;20116;-52
2023/07/01 22:09:57;;;;;;;4.22;2.13;;;;;;;18.77;71.36;99915.16;15781371;28;20040;-50
2023/07/01 22:17:31;;;;;;;86.40;6.45;;;;;;;18.98;70.85;99910.31;15767763;28;20111;-56
2023/07/01 22:25:04;;;;;;;2.45;1.85;;;;;;;18.73;71.75;99909.47;15762548;28;20048;-52
2023/07/01 22:32:39;;;;;;;6.20;1.90;;;;;;;18.21;73.50;99923.66;15725908;28;20052;-57
2023/07/01 22:40:12;;;;;;;2.35;1.95;;;;;;;18.40;72.83;99918.38;15764942;28;20076;-51
2023/07/01 22:47:47;;;;;;;3.05;1.67;;;;;;;18.67;72.41;99924.16;15747873;28;20064;-52
2023/07/01 22:55:22;;;;;;;6.25;1.80;;;;;;;18.45;73.31;99926.50;15775817;28;20045;-49
2023/07/01 23:02:56;;;;;;;144.38;11.13;;;;;;;18.46;73.31;99923.50;15717639;28;20102;-51
2023/07/01 23:10:30;;;;;;;5.95;2.22;;;;;;;18.27;73.39;99927.97;15764745;28;20056;-49
2023/07/01 23:18:05;;;;;;;3.47;1.92;;;;;;;17.96;74.27;99920.00;15739257;28;20306;-48
2023/07/01 23:25:39;;;;;;;3.80;1.85;;;;;;;18.57;73.04;99924.25;15725865;28;20048;-47
2023/07/01 23:33:13;;;;;;;3.28;2.05;;;;;;;18.19;73.90;99923.16;15741979;28;20181;-48
2023/07/01 23:40:46;;;;;;;3.80;1.90;;;;;;;17.79;74.90;99936.63;15720028;28;20083;-46
2023/07/01 23:48:20;;;;;;;3.03;1.95;;;;;;;17.97;74.94;99940.63;15717263;28;20064;-47
2023/07/01 23:55:53;;;;;;;31.17;3.25;;;;;;;18.07;74.29;99942.47;15765853;28;20054;-48
